Pagrindinis puslapis
METAR-TAF:

METAR-TAF

Oro uostai :

Taricha, Bolivija

platuma: 21-33S, ilguma: 064-42W, Aukštis: 1854 m

Dabartinis oras

Ataskaita buvo paskelbta 10 minutes, ne 15:00 UTC
Vėjas 3 kt iš Šiaurės Rytų
Temperatūra 9°C
Drėgmė 57%
Slėgis 1026 hPa
Matomumas 10 km arba daugiau
Mažai debesys ne aukštis 3000 ft

METAR: SLTJ 271500Z 05003KT 9999 FEW030 09/01 Q1026

Laikas: 11:10 (15:10 UTC)

Prognozė

Ataskaita buvo paskelbta 5 valandos ir 10 minutes, ne 10:00 UTC
Prognozė galioja nuo 27 metu 12 UTC su 28 metu 12 UTC
Vėjas kt iš Šiaurės
Matomumas 10 km arba daugiau

TAF: SLTJ 271000Z 2712/2812 00000KT 9999 NSC TX16/2719Z TN00/2810Z

Orai ataskaitas ir orų prognozės (METAR, TAF).

turimą stotys yra geltonos ir raudonos taškus žemėlapyje.

Perkelti pele per norėdami pamatyti stoties vardą.

Tada spustelėkite, norėdami matyti oro stebėjimo ir prognozės.

Norėdami pakeisti žemėlapį: spustelėkite ant žalios mygtukų su juodo kryžiaus žemyn,; žalią mygtuką su brūkšneliu, jei norite nutolinti; arba žalių rodyklių gretimoms žemėlapius.


METAR-TAF: